Time,TemperatureF,DewpointF,PressureIn,WindDirection,WindDirectionDegrees,WindSpeedMPH,WindSpeedGustMPH,Humidity,HourlyPrecipIn,Conditions,Clouds,dailyrainin,SoftwareType,DateUTC
2013-05-10 00:00:00,55.3,53.6,29.91,SW,225,0.0,0.0,94,0.00,SCT,SCT,0.00,WeatherDisplay:10.31,2013-05-10 04:00:00,
2013-05-10 00:10:00,55.0,53.6,29.91,SW,225,0.0,0.0,95,0.00,SCT,SCT,0.00,WeatherDisplay:10.31,2013-05-10 04:10:00,
2013-05-10 00:20:00,54.8,53.4,29.91,SW,225,0.0,0.0,95,0.00,SCT,SCT,0.00,WeatherDisplay:10.31,2013-05-10 04:20:00,
2013-05-10 00:30:00,54.5,53.1,29.91,SW,225,0.0,0.0,95,0.00,SCT,SCT,0.00,WeatherDisplay:10.31,2013-05-10 04:30:00,
2013-05-10 00:40:00,54.3,52.9,29.91,SW,225,0.0,0.0,95,0.00,SCT,SCT,0.00,WeatherDisplay:10.31,2013-05-10 04:40:00,
2013-05-10 00:50:00,54.5,53.0,29.91,SW,225,0.0,0.0,95,0.00,SCT,SCT,0.00,WeatherDisplay:10.31,2013-05-10 04:50:00,
2013-05-10 01:00:00,54.3,52.9,29.91,SW,225,0.0,0.0,95,0.00,SCT,SCT,0.00,WeatherDisplay:10.31,2013-05-10 05:00:00,
2013-05-10 01:10:00,54.1,52.7,29.91,SW,225,0.0,0.0,95,0.00,SCT,SCT,0.00,WeatherDisplay:10.31,2013-05-10 05:10:00,
2013-05-10 01:20:00,53.9,52.5,29.91,SW,225,0.0,0.0,95,0.00,SCT,SCT,0.00,WeatherDisplay:10.31,2013-05-10 05:20:00,
2013-05-10 01:30:00,54.1,53.0,29.91,SW,225,1.0,2.0,96,0.00,SCT,SCT,0.00,WeatherDisplay:10.31,2013-05-10 05:30:00,
2013-05-10 01:40:00,54.2,52.8,29.91,SW,225,0.0,3.0,95,0.00,SCT,SCT,0.00,WeatherDisplay:10.31,2013-05-10 05:40:00,
2013-05-10 01:50:00,54.0,52.9,29.90,SW,225,0.0,1.0,96,0.00,SCT,SCT,0.00,WeatherDisplay:10.31,2013-05-10 05:50:00,
2013-05-10 02:00:00,54.0,52.9,29.90,SW,225,0.0,2.0,96,0.00,SCT,SCT,0.00,WeatherDisplay:10.31,2013-05-10 06:00:00,
2013-05-10 02:10:00,53.8,52.7,29.90,SW,225,0.0,0.0,96,0.00,SCT,SCT,0.00,WeatherDisplay:10.31,2013-05-10 06:10:00,
2013-05-10 02:20:00,53.6,52.5,29.91,SW,225,0.0,0.0,96,0.00,SCT,SCT,0.00,WeatherDisplay:10.31,2013-05-10 06:20:00,
2013-05-10 02:30:00,53.3,52.2,29.91,SW,225,0.0,0.0,96,0.00,SCT,SCT,0.00,WeatherDisplay:10.31,2013-05-10 06:30:00,
2013-05-10 02:40:00,53.5,52.4,29.91,SW,225,0.0,0.0,96,0.00,SCT,SCT,0.00,WeatherDisplay:10.31,2013-05-10 06:40:00,
2013-05-10 02:50:00,53.2,52.0,29.91,SW,225,0.0,0.0,96,0.00,SCT,SCT,0.00,WeatherDisplay:10.31,2013-05-10 06:50:00,
2013-05-10 03:00:00,53.2,52.1,29.91,SW,225,0.0,0.0,96,0.00,SCT,SCT,0.00,WeatherDisplay:10.31,2013-05-10 07:00:00,
2013-05-10 03:10:00,53.0,51.9,29.91,SW,225,0.0,0.0,96,0.00,FEW,FEW,0.00,WeatherDisplay:10.31,2013-05-10 07:10:00,
2013-05-10 03:20:00,53.0,51.8,29.91,SW,225,0.0,0.0,96,0.00,FEW,FEW,0.00,WeatherDisplay:10.31,2013-05-10 07:20:00,
2013-05-10 03:30:00,52.9,51.8,29.91,SW,225,0.0,0.0,96,0.00,FEW,FEW,0.00,WeatherDisplay:10.31,2013-05-10 07:30:00,
2013-05-10 03:40:00,52.9,51.8,29.91,SW,225,0.0,0.0,96,0.00,FEW,FEW,0.00,WeatherDisplay:10.31,2013-05-10 07:40:00,
2013-05-10 03:50:00,53.0,51.9,29.91,SW,225,0.0,1.0,96,0.00,FEW,FEW,0.00,WeatherDisplay:10.31,2013-05-10 07:50:00,
2013-05-10 04:00:00,53.0,51.9,29.91,SW,225,1.0,2.0,96,0.00,FEW,FEW,0.00,WeatherDisplay:10.31,2013-05-10 08:00:00,
2013-05-10 04:10:00,53.1,52.0,29.91,SW,225,0.0,2.0,96,0.00,FEW,FEW,0.00,WeatherDisplay:10.31,2013-05-10 08:10:00,
2013-05-10 04:20:00,53.2,52.1,29.91,SW,225,0.0,0.0,96,0.00,FEW,FEW,0.00,WeatherDisplay:10.31,2013-05-10 08:20:00,
2013-05-10 04:30:00,53.0,51.9,29.91,SW,225,0.0,0.0,96,0.00,FEW,FEW,0.00,WeatherDisplay:10.31,2013-05-10 08:30:00,
2013-05-10 04:40:00,53.0,51.9,29.91,SW,225,0.0,2.0,96,0.00,FEW,FEW,0.00,WeatherDisplay:10.31,2013-05-10 08:40:00,
2013-05-10 04:50:00,52.7,51.6,29.92,SW,225,1.0,2.0,96,0.00,FEW,FEW,0.00,WeatherDisplay:10.31,2013-05-10 08:50:00,
2013-05-10 05:00:00,53.0,51.9,29.92,SW,225,2.0,3.0,96,0.00,FEW,FEW,0.00,WeatherDisplay:10.31,2013-05-10 09:00:00,
2013-05-10 05:10:00,53.1,52.0,29.92,SW,225,0.0,3.0,96,0.00,FEW,FEW,0.00,WeatherDisplay:10.31,2013-05-10 09:10:00,
2013-05-10 05:20:00,53.3,52.2,29.93,SW,225,0.0,2.0,96,0.00,FEW,FEW,0.00,WeatherDisplay:10.31,2013-05-10 09:20:00,
2013-05-10 05:30:00,53.3,52.2,29.93,SW,225,1.0,2.0,96,0.00,FEW,FEW,0.00,WeatherDisplay:10.31,2013-05-10 09:30:00,
2013-05-10 05:40:00,54.8,53.9,29.94,WSW,247,1.0,6.0,97,0.00,FEW,FEW,0.00,WeatherDisplay:10.31,2013-05-10 09:40:00,
2013-05-10 05:50:00,55.3,54.5,29.94,WSW,247,0.0,3.0,97,0.00,FEW,FEW,0.00,WeatherDisplay:10.31,2013-05-10 09:50:00,
2013-05-10 06:00:00,55.3,54.2,29.94,WSW,247,1.0,3.0,96,0.00,FEW,FEW,0.00,WeatherDisplay:10.31,2013-05-10 10:00:00,
2013-05-10 06:10:00,55.8,55.0,29.94,WSW,247,2.0,3.0,97,0.00,FEW,FEW,0.00,WeatherDisplay:10.31,2013-05-10 10:10:00,
2013-05-10 06:20:00,55.7,54.5,29.95,WSW,247,0.0,3.0,96,0.00,CLR,CLR,0.00,WeatherDisplay:10.31,2013-05-10 10:20:00,
2013-05-10 06:30:00,55.9,54.7,29.95,WSW,247,0.0,1.0,96,0.00,CLR,CLR,0.00,WeatherDisplay:10.31,2013-05-10 10:30:00,
2013-05-10 06:40:00,56.6,55.5,29.95,WSW,247,1.0,3.0,96,0.00,CLR,CLR,0.00,WeatherDisplay:10.31,2013-05-10 10:40:00,
2013-05-10 06:50:00,57.2,56.1,29.95,WSW,247,2.0,3.0,96,0.00,CLR,CLR,0.00,WeatherDisplay:10.31,2013-05-10 10:50:00,
2013-05-10 07:00:00,57.9,56.8,29.96,WSW,250,2.0,5.0,96,0.00,CLR,CLR,0.00,WeatherDisplay:10.31,2013-05-10 11:00:00,
2013-05-10 07:10:00,58.5,57.4,29.96,WSW,255,2.0,5.0,96,0.00,FEW,FEW,0.00,WeatherDisplay:10.31,2013-05-10 11:10:00,
2013-05-10 07:20:00,59.1,57.7,29.95,West,267,2.0,3.0,95,0.00,FEW,FEW,0.00,WeatherDisplay:10.31,2013-05-10 11:20:00,
2013-05-10 07:30:00,59.7,58.0,29.95,West,264,2.0,3.0,94,0.00,FEW,FEW,0.00,WeatherDisplay:10.31,2013-05-10 11:30:00,
2013-05-10 07:40:00,60.7,58.4,29.95,West,270,0.0,3.0,92,0.00,FEW,FEW,0.00,WeatherDisplay:10.31,2013-05-10 11:40:00,
2013-05-10 07:50:00,61.1,58.2,29.96,West,270,2.0,3.0,90,0.00,FEW,FEW,0.00,WeatherDisplay:10.31,2013-05-10 11:50:00,
2013-05-10 08:00:00,62.0,58.8,29.96,West,275,5.0,5.0,89,0.00,FEW,FEW,0.00,WeatherDisplay:10.31,2013-05-10 12:00:00,
2013-05-10 08:10:00,62.8,58.5,29.96,WNW,289,2.0,6.0,86,0.00,FEW,FEW,0.00,WeatherDisplay:10.31,2013-05-10 12:10:00,
2013-05-10 08:20:00,63.7,58.8,29.96,WSW,253,2.0,6.0,84,0.00,FEW,FEW,0.00,WeatherDisplay:10.31,2013-05-10 12:20:00,
2013-05-10 08:30:00,64.4,58.5,29.96,WNW,291,2.0,6.0,81,0.00,FEW,FEW,0.00,WeatherDisplay:10.31,2013-05-10 12:30:00,
2013-05-10 08:40:00,65.3,58.6,29.96,NW,305,0.0,6.0,79,0.00,FEW,FEW,0.00,WeatherDisplay:10.31,2013-05-10 12:40:00,
2013-05-10 08:50:00,66.2,58.8,29.96,WNW,292,3.0,5.0,77,0.00,FEW,FEW,0.00,WeatherDisplay:10.31,2013-05-10 12:50:00,
2013-05-10 09:00:00,66.8,59.0,29.96,West,277,3.0,5.0,76,0.00,FEW,FEW,0.00,WeatherDisplay:10.31,2013-05-10 13:00:00,
2013-05-10 09:10:00,67.4,58.8,29.96,NW,305,1.0,3.0,74,0.00,SCT,SCT,0.00,WeatherDisplay:10.31,2013-05-10 13:10:00,
2013-05-10 09:20:00,68.9,59.1,29.95,North,360,2.0,5.0,71,0.00,SCT,SCT,0.00,WeatherDisplay:10.31,2013-05-10 13:20:00,
2013-05-10 09:30:00,69.3,59.1,29.95,NNE,22,1.0,3.0,70,0.00,SCT,SCT,0.00,WeatherDisplay:10.31,2013-05-10 13:30:00,
2013-05-10 09:40:00,70.0,58.1,29.95,WNW,293,1.0,5.0,66,0.00,SCT,SCT,0.00,WeatherDisplay:10.31,2013-05-10 13:40:00,
2013-05-10 09:50:00,70.8,58.9,29.95,West,262,2.0,3.0,66,0.00,SCT,SCT,0.00,WeatherDisplay:10.31,2013-05-10 13:50:00,
2013-05-10 10:00:00,71.5,58.7,29.95,WNW,283,2.0,3.0,64,0.00,SCT,SCT,0.00,WeatherDisplay:10.31,2013-05-10 14:00:00,
2013-05-10 10:10:00,72.3,58.1,29.95,WNW,282,5.0,6.0,61,0.00,SCT,SCT,0.00,WeatherDisplay:10.31,2013-05-10 14:10:00,
2013-05-10 10:20:00,72.4,59.1,29.96,WSW,251,3.0,7.0,63,0.00,SCT,SCT,0.00,WeatherDisplay:10.31,2013-05-10 14:20:00,
2013-05-10 10:30:00,72.9,58.2,29.95,WSW,252,3.0,6.0,60,0.00,SCT,SCT,0.00,WeatherDisplay:10.31,2013-05-10 14:30:00,
2013-05-10 10:40:00,73.1,56.0,29.95,West,272,2.0,8.0,55,0.00,SCT,SCT,0.00,WeatherDisplay:10.31,2013-05-10 14:40:00,
2013-05-10 10:50:00,73.2,54.0,29.95,SW,226,1.0,5.0,51,0.00,SCT,SCT,0.00,WeatherDisplay:10.31,2013-05-10 14:50:00,
2013-05-10 11:00:00,74.6,54.7,29.95,SW,226,2.0,6.0,50,0.00,SCT,SCT,0.00,WeatherDisplay:10.31,2013-05-10 15:00:00,
2013-05-10 11:10:00,74.7,52.6,29.95,SW,235,2.0,5.0,46,0.00,BKN,BKN,0.00,WeatherDisplay:10.31,2013-05-10 15:10:00,
2013-05-10 11:20:00,75.1,52.9,29.95,West,263,5.0,8.0,46,0.00,BKN,BKN,0.00,WeatherDisplay:10.31,2013-05-10 15:20:00,
2013-05-10 11:30:00,75.9,53.0,29.95,WSW,250,5.0,7.0,45,0.00,BKN,BKN,0.00,WeatherDisplay:10.31,2013-05-10 15:30:00,
2013-05-10 11:40:00,75.7,53.4,29.94,WSW,237,5.0,10.0,46,0.00,BKN,BKN,0.00,WeatherDisplay:10.31,2013-05-10 15:40:00,
2013-05-10 11:50:00,75.8,54.1,29.94,WSW,241,2.0,8.0,47,0.00,BKN,BKN,0.00,WeatherDisplay:10.31,2013-05-10 15:50:00,
2013-05-10 12:00:00,76.7,56.7,29.94,SSW,195,6.0,12.0,50,0.00,BKN,BKN,0.00,WeatherDisplay:10.31,2013-05-10 16:00:00,
2013-05-10 12:10:00,75.3,57.0,29.94,South,169,6.0,12.0,53,0.00,BKN,BKN,0.00,WeatherDisplay:10.31,2013-05-10 16:10:00,
2013-05-10 12:20:00,75.3,58.5,29.94,South,175,6.0,13.0,56,0.00,BKN,BKN,0.00,WeatherDisplay:10.31,2013-05-10 16:20:00,
2013-05-10 12:30:00,75.7,57.4,29.94,SSW,193,6.0,12.0,53,0.00,BKN,BKN,0.00,WeatherDisplay:10.31,2013-05-10 16:30:00,
2013-05-10 12:40:00,76.5,57.6,29.94,SW,216,3.0,8.0,52,0.00,BKN,BKN,0.00,WeatherDisplay:10.31,2013-05-10 16:40:00,
2013-05-10 12:50:00,75.9,56.5,29.94,SSW,208,6.0,12.0,51,0.00,BKN,BKN,0.00,WeatherDisplay:10.31,2013-05-10 16:50:00,
2013-05-10 13:00:00,76.7,56.1,29.94,SW,217,3.0,10.0,49,0.00,BKN,BKN,0.00,WeatherDisplay:10.31,2013-05-10 17:00:00,
2013-05-10 13:10:00,77.5,55.7,29.94,SSW,204,3.0,10.0,47,0.00,BKN,BKN,0.00,WeatherDisplay:10.31,2013-05-10 17:10:00,
2013-05-10 13:20:00,77.6,55.2,29.93,WSW,242,3.0,9.0,46,0.00,BKN,BKN,0.00,WeatherDisplay:10.31,2013-05-10 17:20:00,
2013-05-10 13:30:00,77.1,54.7,29.93,WSW,255,2.0,9.0,46,0.00,BKN,BKN,0.00,WeatherDisplay:10.31,2013-05-10 17:30:00,
2013-05-10 13:40:00,78.7,56.8,29.93,SW,223,7.0,10.0,47,0.00,BKN,BKN,0.00,WeatherDisplay:10.31,2013-05-10 17:40:00,
2013-05-10 13:50:00,78.1,58.5,29.93,South,187,6.0,13.0,51,0.00,BKN,BKN,0.00,WeatherDisplay:10.31,2013-05-10 17:50:00,
2013-05-10 14:00:00,77.1,57.6,29.93,South,172,7.0,12.0,51,0.00,BKN,BKN,0.00,WeatherDisplay:10.31,2013-05-10 18:00:00,
2013-05-10 14:10:00,76.3,58.4,29.93,SSE,166,7.0,12.0,54,0.00,BKN,BKN,0.00,WeatherDisplay:10.31,2013-05-10 18:10:00,
2013-05-10 14:20:00,74.3,57.6,29.93,South,176,6.0,12.0,56,0.00,BKN,BKN,0.00,WeatherDisplay:10.31,2013-05-10 18:20:00,
2013-05-10 14:30:00,73.5,57.9,29.93,South,180,3.0,12.0,58,0.00,BKN,BKN,0.00,WeatherDisplay:10.31,2013-05-10 18:30:00,
2013-05-10 14:40:00,74.0,56.8,29.93,South,175,5.0,12.0,55,0.00,BKN,BKN,0.00,WeatherDisplay:10.31,2013-05-10 18:40:00,
2013-05-10 14:50:00,74.4,57.6,29.93,South,185,3.0,13.0,56,0.00,BKN,BKN,0.00,WeatherDisplay:10.31,2013-05-10 18:50:00,
2013-05-10 15:00:00,74.5,58.2,29.93,South,191,8.0,14.0,57,0.00,BKN,BKN,0.00,WeatherDisplay:10.31,2013-05-10 19:00:00,
2013-05-10 15:10:00,73.6,57.5,29.93,South,178,9.0,16.0,57,0.00,BKN,BKN,0.00,WeatherDisplay:10.31,2013-05-10 19:10:00,
2013-05-10 15:20:00,73.6,57.4,29.92,South,191,5.0,16.0,57,0.00,BKN,BKN,0.00,WeatherDisplay:10.31,2013-05-10 19:20:00,
2013-05-10 15:30:00,73.0,56.9,29.93,South,174,7.0,14.0,57,0.00,BKN,BKN,0.00,WeatherDisplay:10.31,2013-05-10 19:30:00,
2013-05-10 15:40:00,72.3,57.2,29.92,South,172,7.0,12.0,59,0.00,BKN,BKN,0.00,WeatherDisplay:10.31,2013-05-10 19:40:00,
2013-05-10 15:50:00,72.3,56.7,29.92,South,169,6.0,12.0,58,0.00,BKN,BKN,0.00,WeatherDisplay:10.31,2013-05-10 19:50:00,
2013-05-10 16:00:00,70.9,56.3,29.92,South,178,9.0,14.0,60,0.00,BKN,BKN,0.00,WeatherDisplay:10.31,2013-05-10 20:00:00,
2013-05-10 16:10:00,71.1,57.0,29.92,South,174,5.0,12.0,61,0.00,BKN,BKN,0.00,WeatherDisplay:10.31,2013-05-10 20:10:00,
2013-05-10 16:20:00,71.1,57.4,29.92,SSE,168,5.0,12.0,62,0.00,BKN,BKN,0.00,WeatherDisplay:10.31,2013-05-10 20:20:00,
2013-05-10 16:30:00,70.6,57.4,29.92,SSW,198,6.0,13.0,63,0.00,BKN,BKN,0.00,WeatherDisplay:10.31,2013-05-10 20:30:00,
2013-05-10 16:40:00,71.0,58.2,29.92,SSE,168,6.0,13.0,64,0.00,BKN,BKN,0.00,WeatherDisplay:10.31,2013-05-10 20:40:00,
2013-05-10 16:50:00,69.3,57.9,29.92,South,180,8.0,15.0,67,0.00,BKN,BKN,0.00,WeatherDisplay:10.31,2013-05-10 20:50:00,
2013-05-10 17:00:00,68.5,57.9,29.92,South,178,10.0,16.0,69,0.00,BKN,BKN,0.00,WeatherDisplay:10.31,2013-05-10 21:00:00,
2013-05-10 17:10:00,68.5,58.3,29.92,South,177,3.0,16.0,70,0.00,BKN,BKN,0.00,WeatherDisplay:10.31,2013-05-10 21:10:00,
2013-05-10 17:20:00,68.5,58.7,29.92,South,180,9.0,17.0,71,0.00,BKN,BKN,0.00,WeatherDisplay:10.31,2013-05-10 21:20:00,
2013-05-10 17:30:00,67.3,58.3,29.92,SSE,164,7.0,16.0,73,0.00,BKN,BKN,0.00,WeatherDisplay:10.31,2013-05-10 21:30:00,
2013-05-10 17:40:00,66.0,57.8,29.92,South,170,7.0,13.0,75,0.00,BKN,BKN,0.00,WeatherDisplay:10.31,2013-05-10 21:40:00,
2013-05-10 17:50:00,65.3,57.9,29.92,South,174,8.0,12.0,77,0.00,BKN,BKN,0.00,WeatherDisplay:10.31,2013-05-10 21:50:00,
2013-05-10 18:00:00,65.0,58.0,29.92,South,171,3.0,13.0,78,0.00,BKN,BKN,0.00,WeatherDisplay:10.31,2013-05-10 22:00:00,
2013-05-10 18:10:00,65.4,58.0,29.92,South,169,9.0,13.0,77,0.00,BKN,BKN,0.00,WeatherDisplay:10.31,2013-05-10 22:10:00,
2013-05-10 18:20:00,65.0,57.6,29.92,South,178,8.0,13.0,77,0.00,BKN,BKN,0.00,WeatherDisplay:10.31,2013-05-10 22:20:00,
2013-05-10 18:30:00,64.2,57.6,29.92,SSE,167,2.0,13.0,79,0.00,BKN,BKN,0.00,WeatherDisplay:10.31,2013-05-10 22:30:00,
2013-05-10 18:40:00,64.0,57.3,29.92,SSE,163,7.0,12.0,79,0.00,BKN,BKN,0.00,WeatherDisplay:10.31,2013-05-10 22:40:00,
2013-05-10 18:50:00,63.8,57.2,29.91,SSE,164,5.0,13.0,79,0.00,BKN,BKN,0.00,WeatherDisplay:10.31,2013-05-10 22:50:00,
2013-05-10 19:00:00,63.6,57.3,29.91,SSE,168,5.0,13.0,80,0.00,BKN,BKN,0.00,WeatherDisplay:10.31,2013-05-10 23:00:00,
2013-05-10 19:10:00,63.2,57.3,29.91,SSE,161,2.0,10.0,81,0.00,OVC,OVC,0.00,WeatherDisplay:10.31,2013-05-10 23:10:00,
2013-05-10 19:20:00,62.9,57.0,29.91,SSE,153,5.0,9.0,81,0.00,OVC,OVC,0.00,WeatherDisplay:10.31,2013-05-10 23:20:00,
2013-05-10 19:30:00,62.5,56.9,29.91,SSE,165,5.0,10.0,82,0.00,OVC,OVC,0.00,WeatherDisplay:10.31,2013-05-10 23:30:00,
2013-05-10 19:40:00,62.1,56.6,29.91,South,169,3.0,10.0,82,0.00,OVC,OVC,0.00,WeatherDisplay:10.31,2013-05-10 23:40:00,
2013-05-10 19:50:00,61.6,56.4,29.91,South,170,5.0,9.0,83,0.00,OVC,OVC,0.00,WeatherDisplay:10.31,2013-05-10 23:50:00,
2013-05-10 20:00:00,61.3,56.4,29.90,SSE,158,6.0,9.0,84,0.00,OVC,OVC,0.00,WeatherDisplay:10.31,2013-05-11 00:00:00,
2013-05-10 20:10:00,60.9,56.4,29.90,South,169,5.0,12.0,85,0.00,OVC,OVC,0.00,WeatherDisplay:10.31,2013-05-11 00:10:00,
2013-05-10 20:20:00,60.8,56.3,29.90,SSE,166,3.0,9.0,85,0.00,OVC,OVC,0.00,WeatherDisplay:10.31,2013-05-11 00:20:00,
2013-05-10 20:30:00,60.5,56.3,29.90,South,172,6.0,9.0,86,0.00,OVC,OVC,0.00,WeatherDisplay:10.31,2013-05-11 00:30:00,
2013-05-10 20:40:00,60.3,56.1,29.89,South,170,5.0,10.0,86,0.00,OVC,OVC,0.00,WeatherDisplay:10.31,2013-05-11 00:40:00,
2013-05-10 20:50:00,60.3,56.4,29.90,SSE,163,6.0,10.0,87,0.00,OVC,OVC,0.00,WeatherDisplay:10.31,2013-05-11 00:50:00,
2013-05-10 21:00:00,60.4,56.5,29.89,SSE,166,5.0,12.0,87,0.00,OVC,OVC,0.00,WeatherDisplay:10.31,2013-05-11 01:00:00,
2013-05-10 21:10:00,60.5,56.6,29.90,South,172,6.0,13.0,87,0.00,BKN,BKN,0.00,WeatherDisplay:10.31,2013-05-11 01:10:00,
2013-05-10 21:20:00,60.7,56.5,29.90,South,169,5.0,14.0,86,0.00,BKN,BKN,0.00,WeatherDisplay:10.31,2013-05-11 01:20:00,
2013-05-10 21:30:00,60.7,56.5,29.90,South,182,5.0,9.0,86,0.00,BKN,BKN,0.00,WeatherDisplay:10.31,2013-05-11 01:30:00,
2013-05-10 21:40:00,60.5,56.3,29.91,South,190,5.0,8.0,86,0.00,BKN,BKN,0.00,WeatherDisplay:10.31,2013-05-11 01:40:00,
2013-05-10 21:50:00,60.2,56.3,29.91,SSW,192,1.0,10.0,87,0.00,BKN,BKN,0.00,WeatherDisplay:10.31,2013-05-11 01:50:00,
2013-05-10 22:00:00,59.8,55.9,29.91,SW,221,1.0,6.0,87,0.00,BKN,BKN,0.00,WeatherDisplay:10.31,2013-05-11 02:00:00,
2013-05-10 22:10:00,59.4,55.8,29.90,South,188,1.0,3.0,88,0.00,BKN,BKN,0.00,WeatherDisplay:10.31,2013-05-11 02:10:00,
2013-05-10 22:20:00,59.1,55.9,29.90,South,182,3.0,8.0,89,0.00,BKN,BKN,0.00,WeatherDisplay:10.31,2013-05-11 02:20:00,
2013-05-10 22:30:00,58.9,55.7,29.89,South,180,5.0,7.0,89,0.00,BKN,BKN,0.00,WeatherDisplay:10.31,2013-05-11 02:30:00,
2013-05-10 22:40:00,58.7,55.5,29.89,South,176,2.0,7.0,89,0.00,BKN,BKN,0.00,WeatherDisplay:10.31,2013-05-11 02:40:00,
2013-05-10 22:50:00,58.6,55.7,29.88,South,180,1.0,5.0,90,0.00,BKN,BKN,0.00,WeatherDisplay:10.31,2013-05-11 02:50:00,
2013-05-10 23:00:00,58.6,55.6,29.88,South,187,2.0,3.0,90,0.00,BKN,BKN,0.00,WeatherDisplay:10.31,2013-05-11 03:00:00,
2013-05-10 23:10:00,58.5,55.6,29.88,South,169,2.0,6.0,90,0.00,BKN,BKN,0.00,WeatherDisplay:10.31,2013-05-11 03:10:00,
2013-05-10 23:20:00,59.0,56.1,29.88,SSE,163,3.0,6.0,90,0.00,BKN,BKN,0.00,WeatherDisplay:10.31,2013-05-11 03:20:00,
2013-05-10 23:30:00,59.0,55.8,29.87,SSE,166,2.0,5.0,89,0.00,BKN,BKN,0.00,WeatherDisplay:10.31,2013-05-11 03:30:00,
2013-05-10 23:40:00,58.8,55.6,29.87,SSE,158,5.0,7.0,89,0.00,BKN,BKN,0.00,WeatherDisplay:10.31,2013-05-11 03:40:00,
2013-05-10 23:50:00,58.9,56.0,29.86,SSE,160,2.0,7.0,90,0.00,BKN,BKN,0.00,WeatherDisplay:10.31,2013-05-11 03:50:00,